LFPM 071500Z AUTO 13005KT 060V190 CAVOK 23/07 Q1025

Les avions qui composent notre flotte

Avion Robin DR400-100

Avion école

(freins aux palonniers)

F-GGJG
   * tarif promotionnel appliqué pendant la formation des élèves non brevetés


F-GGJG Planche